createdAt,value
2023-03-03T00:01:01.427Z,153.90
2023-03-03T00:03:29.558Z,147.90
2023-03-03T00:05:57.356Z,136.40
2023-03-03T00:08:25.433Z,141.10
2023-03-03T00:10:54.930Z,142.60
2023-03-03T00:13:24.938Z,140.40
2023-03-03T00:15:53.831Z,132.50
2023-03-03T00:18:40.298Z,141.70
2023-03-03T00:21:22.122Z,163.20
2023-03-03T00:23:50.035Z,160.20
2023-03-03T00:26:24.740Z,155.40
2023-03-03T00:28:54.104Z,143.80
2023-03-03T00:31:30.135Z,140.80
2023-03-03T00:34:02.534Z,145.70
2023-03-03T00:36:37.423Z,150.90
2023-03-03T00:39:33.164Z,142.00
2023-03-03T00:42:03.840Z,135.70
2023-03-03T00:44:42.340Z,137.60
2023-03-03T00:47:37.703Z,138.90
2023-03-03T00:50:10.813Z,141.20
2023-03-03T00:52:40.390Z,137.50
2023-03-03T00:55:08.320Z,132.00
2023-03-03T00:57:35.578Z,136.50
2023-03-03T01:00:04.849Z,135.90
2023-03-03T01:02:32.507Z,135.80
2023-03-03T01:04:59.842Z,142.20
2023-03-03T01:07:27.581Z,159.50
2023-03-03T01:09:55.389Z,139.00
2023-03-03T01:12:23.543Z,142.50
2023-03-03T01:14:52.396Z,132.00
2023-03-03T01:17:19.532Z,133.90
2023-03-03T01:19:46.700Z,136.50
2023-03-03T01:22:13.915Z,149.10
2023-03-03T01:24:41.029Z,147.80
2023-03-03T01:27:08.266Z,139.20
2023-03-03T01:29:35.385Z,144.80
2023-03-03T01:32:02.599Z,147.60
2023-03-03T01:34:29.722Z,156.40
2023-03-03T01:36:56.874Z,145.50
2023-03-03T01:39:24.027Z,144.90
2023-03-03T01:41:51.116Z,194.40
2023-03-03T01:44:18.538Z,155.20
2023-03-03T01:47:06.469Z,142.10
2023-03-03T01:49:47.081Z,135.40
2023-03-03T01:52:33.672Z,136.20
2023-03-03T01:55:10.909Z,138.40
2023-03-03T01:57:42.925Z,129.00
2023-03-03T02:00:11.535Z,129.10
2023-03-03T02:02:42.621Z,153.70
2023-03-03T02:05:10.616Z,149.60
2023-03-03T02:07:38.577Z,156.10
2023-03-03T02:10:19.135Z,153.30
2023-03-03T02:12:49.549Z,148.00
2023-03-03T02:15:17.868Z,146.80
2023-03-03T02:17:47.812Z,178.30
2023-03-03T02:20:26.276Z,174.10
2023-03-03T02:23:05.636Z,161.20
2023-03-03T02:25:54.480Z,155.10
2023-03-03T02:28:23.936Z,163.60
2023-03-03T02:30:54.972Z,164.30
2023-03-03T02:33:22.187Z,149.10
2023-03-03T02:35:50.082Z,147.70
2023-03-03T02:38:20.389Z,135.00
2023-03-03T02:40:59.457Z,135.80
2023-03-03T02:43:48.428Z,134.20
2023-03-03T02:46:15.475Z,129.70
2023-03-03T02:48:42.582Z,116.00
2023-03-03T02:51:09.731Z,129.90
2023-03-03T02:53:36.799Z,120.60
2023-03-03T02:56:04.263Z,124.50
2023-03-03T02:58:31.192Z,122.70
2023-03-03T03:00:58.120Z,118.90
2023-03-03T03:03:25.243Z,119.60
2023-03-03T03:05:52.625Z,127.40
2023-03-03T03:08:20.280Z,127.90
2023-03-03T03:10:47.807Z,155.30
2023-03-03T03:13:15.088Z,156.50
2023-03-03T03:15:46.261Z,141.20
2023-03-03T03:18:14.665Z,130.80
2023-03-03T03:20:42.523Z,132.40
2023-03-03T03:23:11.218Z,124.50
2023-03-03T03:25:44.610Z,121.70
2023-03-03T03:28:16.540Z,123.70
2023-03-03T03:30:45.195Z,132.30
2023-03-03T03:33:12.901Z,120.50
2023-03-03T03:35:44.907Z,129.40
2023-03-03T03:38:13.874Z,130.00
2023-03-03T03:40:43.166Z,130.90
2023-03-03T03:43:10.077Z,127.70
2023-03-03T03:45:37.093Z,129.30
2023-03-03T03:48:05.132Z,133.80
2023-03-03T03:50:32.421Z,123.80
2023-03-03T03:52:59.544Z,142.20
2023-03-03T03:55:27.300Z,130.40
2023-03-03T03:57:56.014Z,132.00
2023-03-03T04:00:23.632Z,138.60
2023-03-03T04:02:51.800Z,126.50
2023-03-03T04:05:19.361Z,138.50
2023-03-03T04:07:46.962Z,133.60
2023-03-03T04:10:14.959Z,128.40
2023-03-03T04:12:42.413Z,125.50
2023-03-03T04:15:14.622Z,133.60
2023-03-03T04:17:42.896Z,131.30
2023-03-03T04:20:13.702Z,132.40
2023-03-03T04:22:41.915Z,132.10
2023-03-03T04:25:13.900Z,140.70
2023-03-03T04:27:42.611Z,134.10
2023-03-03T04:30:12.105Z,141.90
2023-03-03T04:32:39.349Z,127.60
2023-03-03T04:35:09.176Z,125.40
2023-03-03T04:37:38.542Z,126.40
2023-03-03T04:40:09.327Z,130.10
2023-03-03T04:42:37.157Z,132.50
2023-03-03T04:45:05.361Z,127.60
2023-03-03T04:47:33.126Z,135.50
2023-03-03T04:50:00.550Z,127.00
2023-03-03T04:52:28.494Z,133.30
2023-03-03T04:54:56.005Z,136.90
2023-03-03T04:57:23.233Z,134.00
2023-03-03T04:59:51.642Z,132.90
2023-03-03T05:02:19.525Z,136.40
2023-03-03T05:04:46.822Z,130.10
2023-03-03T05:07:13.868Z,141.10
2023-03-03T05:09:40.875Z,127.00
2023-03-03T05:12:07.929Z,142.60
2023-03-03T05:14:35.165Z,144.80
2023-03-03T05:17:05.346Z,137.10
2023-03-03T05:19:34.379Z,140.30
2023-03-03T05:22:01.752Z,152.10
2023-03-03T05:24:28.993Z,144.20
2023-03-03T05:26:56.042Z,151.10
2023-03-03T05:29:23.016Z,163.50
2023-03-03T05:31:50.116Z,154.40
2023-03-03T05:34:17.168Z,160.70
2023-03-03T05:36:44.227Z,160.30
2023-03-03T05:39:11.172Z,167.70
2023-03-03T05:41:38.283Z,151.60
2023-03-03T05:44:05.823Z,146.40
2023-03-03T05:46:32.756Z,157.30
2023-03-03T05:49:00.361Z,156.00
2023-03-03T05:51:27.461Z,157.20
2023-03-03T05:53:56.436Z,164.40
2023-03-03T05:56:23.805Z,152.20
2023-03-03T05:58:50.780Z,156.50
2023-03-03T06:01:17.925Z,143.60
2023-03-03T06:03:45.004Z,165.40
2023-03-03T06:06:13.637Z,177.00
2023-03-03T06:08:40.598Z,168.30
2023-03-03T06:11:07.773Z,166.10
2023-03-03T06:13:35.034Z,173.40
2023-03-03T06:16:02.489Z,182.80
2023-03-03T06:18:29.751Z,190.00
2023-03-03T06:20:56.767Z,201.70
2023-03-03T06:23:23.837Z,258.00
2023-03-03T06:25:51.068Z,311.10
2023-03-03T06:28:18.215Z,249.60
2023-03-03T06:30:45.173Z,191.60
2023-03-03T06:33:12.272Z,207.70
2023-03-03T06:35:39.288Z,206.90
2023-03-03T06:38:06.270Z,189.30
2023-03-03T06:40:33.362Z,192.20
2023-03-03T06:43:02.701Z,196.80
2023-03-03T06:45:29.865Z,188.20
2023-03-03T06:47:56.948Z,193.10
2023-03-03T06:50:23.795Z,193.20
2023-03-03T06:53:07.147Z,203.60
2023-03-03T06:55:34.321Z,207.30
2023-03-03T06:58:02.476Z,192.20
2023-03-03T07:00:31.209Z,199.60
2023-03-03T07:03:11.793Z,195.90
2023-03-03T07:05:38.909Z,198.70
2023-03-03T07:08:12.697Z,192.50
2023-03-03T07:10:39.821Z,190.00
2023-03-03T07:13:28.189Z,203.00
2023-03-03T07:16:11.237Z,195.60
2023-03-03T07:18:53.290Z,191.80
2023-03-03T07:21:23.060Z,188.30
2023-03-03T07:23:52.180Z,199.60
2023-03-03T07:26:30.126Z,374.20
2023-03-03T07:29:14.893Z,213.20
2023-03-03T07:31:47.245Z,212.60
2023-03-03T07:34:18.683Z,255.00
2023-03-03T07:36:45.785Z,183.90
2023-03-03T07:39:40.270Z,182.80
2023-03-03T07:42:28.623Z,176.10
2023-03-03T07:45:28.240Z,170.50
2023-03-03T07:48:21.030Z,161.40
2023-03-03T07:50:49.456Z,155.50
2023-03-03T07:53:36.815Z,155.80
2023-03-03T07:56:24.982Z,162.60
2023-03-03T07:58:52.663Z,154.60
2023-03-03T08:01:28.765Z,140.30
2023-03-03T08:03:56.332Z,134.00
2023-03-03T08:06:35.438Z,142.00
2023-03-03T08:09:29.251Z,141.70
2023-03-03T08:12:15.175Z,143.10
2023-03-03T08:14:42.237Z,144.10
2023-03-03T08:17:30.636Z,141.60
2023-03-03T08:19:57.650Z,164.00
2023-03-03T08:22:33.343Z,148.60
2023-03-03T08:25:00.526Z,156.60
2023-03-03T08:27:27.669Z,152.80
2023-03-03T08:29:54.749Z,144.80
2023-03-03T08:32:22.292Z,147.70
2023-03-03T08:34:49.323Z,123.80
2023-03-03T08:37:16.270Z,126.10
2023-03-03T08:39:43.654Z,135.50
2023-03-03T08:42:10.559Z,127.90
2023-03-03T08:44:37.761Z,116.60
2023-03-03T08:47:05.677Z,120.70
2023-03-03T08:49:33.081Z,112.30
2023-03-03T08:52:01.176Z,137.00
2023-03-03T08:54:28.747Z,139.80
2023-03-03T08:56:55.687Z,137.30
2023-03-03T08:59:22.631Z,132.00
2023-03-03T09:01:49.674Z,137.70
2023-03-03T09:04:16.771Z,138.30
2023-03-03T09:06:43.862Z,126.60
2023-03-03T09:09:11.190Z,129.50
2023-03-03T09:11:38.344Z,135.20
2023-03-03T09:14:15.570Z,124.00
2023-03-03T09:16:54.767Z,118.90
2023-03-03T09:19:39.840Z,101.80
2023-03-03T09:22:16.173Z,92.50
2023-03-03T09:24:43.285Z,96.40
2023-03-03T09:27:26.836Z,92.50
2023-03-03T09:29:56.990Z,89.50
2023-03-03T09:32:35.195Z,95.50
2023-03-03T09:35:38.477Z,90.60
2023-03-03T09:38:27.479Z,95.20
2023-03-03T09:41:27.916Z,93.60
2023-03-03T09:44:07.321Z,91.80
2023-03-03T09:46:38.805Z,95.60
2023-03-03T09:49:15.260Z,91.30
2023-03-03T09:51:45.303Z,93.90
2023-03-03T09:54:21.086Z,98.50
2023-03-03T09:56:59.056Z,93.10
2023-03-03T09:59:29.426Z,89.50
2023-03-03T10:02:25.009Z,103.00
2023-03-03T10:07:49.478Z,95.20
2023-03-03T10:10:25.506Z,100.90
2023-03-03T10:13:20.838Z,89.60
2023-03-03T10:16:31.709Z,97.60
2023-03-03T10:19:03.223Z,95.30
2023-03-03T10:22:10.667Z,95.30
2023-03-03T10:25:22.991Z,96.40
2023-03-03T10:28:37.347Z,98.90
2023-03-03T10:31:42.604Z,107.60
2023-03-03T10:34:56.501Z,102.40
2023-03-03T10:37:43.010Z,104.80
2023-03-03T10:40:24.990Z,106.70
2023-03-03T10:43:13.740Z,103.60
2023-03-03T10:46:03.506Z,110.70
2023-03-03T10:48:51.499Z,97.60
2023-03-03T10:51:41.812Z,87.70
2023-03-03T10:54:24.209Z,90.50
2023-03-03T10:57:13.110Z,88.60
2023-03-03T11:00:00.820Z,89.80
2023-03-03T11:02:39.249Z,80.90
2023-03-03T11:05:54.240Z,93.30
2023-03-03T11:08:44.341Z,93.90
2023-03-03T11:11:14.517Z,85.00
2023-03-03T11:13:46.312Z,92.60
2023-03-03T11:16:26.338Z,97.90
2023-03-03T11:19:08.915Z,100.30
2023-03-03T11:22:04.833Z,94.40
2023-03-03T11:25:03.094Z,99.30
2023-03-03T11:27:36.338Z,104.10
2023-03-03T11:30:40.996Z,109.00
2023-03-03T11:33:41.290Z,108.00
2023-03-03T11:36:22.878Z,108.20
2023-03-03T11:39:17.029Z,110.70
2023-03-03T11:42:16.598Z,115.60
2023-03-03T11:45:11.854Z,117.70
2023-03-03T11:47:50.801Z,110.50
2023-03-03T11:50:53.266Z,103.60
2023-03-03T11:53:29.313Z,101.40
2023-03-03T11:56:07.115Z,96.50
2023-03-03T11:59:18.689Z,99.20
2023-03-03T12:01:57.722Z,105.20
2023-03-03T12:04:36.505Z,98.30
2023-03-03T12:08:10.487Z,112.20
2023-03-03T12:10:55.129Z,104.80
2023-03-03T12:13:44.286Z,100.90
2023-03-03T12:16:23.856Z,104.20
2023-03-03T12:18:59.736Z,104.70
2023-03-03T12:21:39.089Z,104.50
2023-03-03T12:24:25.067Z,108.20
2023-03-03T12:27:09.977Z,102.70
2023-03-03T12:33:42.222Z,105.60
2023-03-03T12:36:45.673Z,115.30
2023-03-03T12:39:34.682Z,106.80
2023-03-03T12:42:41.448Z,109.90
2023-03-03T12:45:43.437Z,99.90
2023-03-03T12:48:19.816Z,95.90
2023-03-03T12:51:14.881Z,92.70
2023-03-03T12:54:19.716Z,97.00
2023-03-03T12:56:57.825Z,100.60
2023-03-03T13:00:22.772Z,100.20
2023-03-03T13:03:08.727Z,96.20
2023-03-03T13:05:55.180Z,96.60
2023-03-03T13:08:32.044Z,94.60
2023-03-03T13:11:05.405Z,96.50
2023-03-03T13:13:44.475Z,87.30
2023-03-03T13:16:17.362Z,90.90
2023-03-03T13:18:49.264Z,94.10
2023-03-03T13:21:31.492Z,93.50
2023-03-03T13:24:17.837Z,89.40
2023-03-03T13:26:58.180Z,91.60
2023-03-03T13:30:04.460Z,86.90
2023-03-03T13:32:43.186Z,97.10
2023-03-03T13:35:46.684Z,105.70
2023-03-03T13:38:42.525Z,121.30
2023-03-03T13:43:59.610Z,117.80
2023-03-03T13:47:00.952Z,123.70
2023-03-03T13:49:47.586Z,111.50
2023-03-03T13:52:20.804Z,123.40
2023-03-03T13:55:12.192Z,110.40
2023-03-03T13:57:42.053Z,115.90
2023-03-03T14:00:40.208Z,116.70
2023-03-03T14:03:46.016Z,98.60
2023-03-03T14:06:29.389Z,101.20
2023-03-03T14:09:10.859Z,102.30
2023-03-03T14:12:11.980Z,108.70
2023-03-03T14:14:46.924Z,95.80
2023-03-03T14:17:31.047Z,100.80
2023-03-03T14:20:23.248Z,104.70
2023-03-03T14:22:58.149Z,103.30
2023-03-03T14:25:25.275Z,97.20
2023-03-03T14:28:03.924Z,98.70
2023-03-03T14:30:33.199Z,99.20
2023-03-03T14:33:08.676Z,97.40
2023-03-03T14:35:42.026Z,89.10
2023-03-03T14:38:22.688Z,84.40
2023-03-03T14:41:05.923Z,86.10
2023-03-03T14:43:36.940Z,84.80
2023-03-03T14:46:36.876Z,86.50
2023-03-03T14:49:12.778Z,86.90
2023-03-03T14:51:40.132Z,83.60
2023-03-03T14:54:18.676Z,83.70
2023-03-03T14:57:15.715Z,84.40
2023-03-03T15:00:16.109Z,94.20
2023-03-03T15:02:52.365Z,85.10
2023-03-03T15:05:30.823Z,90.70
2023-03-03T15:08:03.635Z,75.00
2023-03-03T15:10:41.573Z,84.70
2023-03-03T15:13:20.742Z,89.10
2023-03-03T15:16:04.382Z,84.80
2023-03-03T15:18:32.875Z,83.80
2023-03-03T15:21:07.757Z,73.40
2023-03-03T15:23:43.735Z,88.50
2023-03-03T15:26:33.675Z,79.30
2023-03-03T15:29:24.344Z,78.10
2023-03-03T15:32:22.549Z,81.80
2023-03-03T15:35:27.780Z,106.10
2023-03-03T15:38:21.125Z,90.40
2023-03-03T15:41:01.742Z,87.00
2023-03-03T15:43:38.573Z,94.00
2023-03-03T15:46:11.768Z,84.80
2023-03-03T15:48:53.346Z,91.10
2023-03-03T15:51:23.331Z,88.60
2023-03-03T15:54:21.104Z,88.40
2023-03-03T15:56:53.340Z,76.50
2023-03-03T15:59:32.486Z,80.20
2023-03-03T16:02:19.822Z,79.90
2023-03-03T16:04:53.896Z,78.50
2023-03-03T16:08:03.021Z,87.90
2023-03-03T16:10:55.071Z,80.30
2023-03-03T16:13:36.677Z,81.60
2023-03-03T16:16:29.114Z,70.50
2023-03-03T16:19:33.739Z,71.20
2023-03-03T16:22:36.210Z,69.60
2023-03-03T16:25:26.573Z,68.50
2023-03-03T16:27:53.626Z,70.80
2023-03-03T16:30:26.899Z,77.60
2023-03-03T16:33:08.800Z,73.70
2023-03-03T16:35:47.213Z,67.40
2023-03-03T16:38:25.120Z,74.30
2023-03-03T16:40:58.606Z,71.60
2023-03-03T16:43:28.642Z,74.60
2023-03-03T16:46:02.181Z,72.10
2023-03-03T16:49:01.468Z,69.60
2023-03-03T16:51:48.077Z,71.60
2023-03-03T16:54:32.936Z,71.40
2023-03-03T16:57:44.061Z,73.00
2023-03-03T17:00:21.078Z,73.60
2023-03-03T17:02:57.089Z,77.20
2023-03-03T17:06:02.138Z,88.60
2023-03-03T17:08:52.976Z,81.90
2023-03-03T17:11:28.357Z,77.50
2023-03-03T17:14:07.026Z,87.30
2023-03-03T17:17:00.382Z,80.60
2023-03-03T17:19:45.738Z,81.20
2023-03-03T17:22:39.134Z,84.40
2023-03-03T17:25:45.444Z,86.10
2023-03-03T17:28:34.916Z,85.60
2023-03-03T17:31:31.599Z,84.30
2023-03-03T17:34:41.836Z,87.10
2023-03-03T17:37:14.525Z,92.50
2023-03-03T17:39:59.395Z,90.70
2023-03-03T17:42:44.903Z,86.90
2023-03-03T17:45:16.704Z,100.40
2023-03-03T17:47:55.666Z,88.50
2023-03-03T17:50:34.816Z,93.80
2023-03-03T17:53:28.492Z,94.40
2023-03-03T17:56:09.264Z,87.00
2023-03-03T17:59:11.421Z,85.40
2023-03-03T18:02:00.016Z,86.60
2023-03-03T18:04:35.904Z,85.90
2023-03-03T18:07:21.328Z,92.40
2023-03-03T18:10:12.412Z,82.40
2023-03-03T18:13:26.234Z,79.80
2023-03-03T18:16:14.738Z,89.40
2023-03-03T18:18:50.800Z,84.20
2023-03-03T18:21:26.869Z,73.90
2023-03-03T18:24:33.457Z,74.40
2023-03-03T18:27:36.839Z,81.20
2023-03-03T18:30:20.871Z,78.20
2023-03-03T18:32:56.903Z,71.30
2023-03-03T18:35:41.244Z,77.20
2023-03-03T18:38:17.528Z,75.30
2023-03-03T18:40:52.549Z,75.70
2023-03-03T18:43:44.749Z,74.30
2023-03-03T18:46:24.429Z,80.00
2023-03-03T18:48:57.113Z,73.30
2023-03-03T18:51:39.188Z,66.40
2023-03-03T18:54:16.378Z,79.20
2023-03-03T18:57:04.444Z,75.20
2023-03-03T18:59:34.530Z,102.60
2023-03-03T19:02:20.512Z,99.40
2023-03-03T19:04:55.775Z,113.20
2023-03-03T19:07:42.806Z,95.60
2023-03-03T19:10:18.680Z,99.60
2023-03-03T19:12:51.657Z,101.50
2023-03-03T19:15:31.460Z,78.20
2023-03-03T19:17:59.850Z,74.70
2023-03-03T19:20:40.102Z,81.90
2023-03-03T19:23:44.882Z,77.30
2023-03-03T19:26:47.519Z,75.20
2023-03-03T19:29:14.424Z,81.90
2023-03-03T19:32:15.646Z,76.30
2023-03-03T19:35:06.005Z,70.00
2023-03-03T19:37:47.937Z,79.00
2023-03-03T19:40:43.244Z,66.20
2023-03-03T19:43:30.824Z,64.10
2023-03-03T19:46:06.865Z,69.60
2023-03-03T19:48:47.859Z,69.70
2023-03-03T19:51:49.444Z,72.00
2023-03-03T19:54:49.027Z,70.40
2023-03-03T19:57:43.282Z,76.00
2023-03-03T20:00:42.677Z,74.80
2023-03-03T20:03:36.807Z,78.60
2023-03-03T20:06:29.446Z,72.40
2023-03-03T20:09:35.400Z,70.80
2023-03-03T20:12:41.039Z,73.60
2023-03-03T20:15:23.652Z,69.70
2023-03-03T20:17:59.008Z,72.20
2023-03-03T20:20:48.591Z,68.20
2023-03-03T20:24:09.617Z,70.40
2023-03-03T20:26:42.415Z,68.00
2023-03-03T20:29:32.857Z,73.40
2023-03-03T20:32:18.051Z,81.30
2023-03-03T20:35:02.972Z,68.30
2023-03-03T20:37:44.086Z,68.70
2023-03-03T20:40:37.711Z,69.70
2023-03-03T20:43:38.654Z,65.70
2023-03-03T20:46:40.950Z,69.60
2023-03-03T20:49:35.743Z,80.40
2023-03-03T20:52:26.990Z,77.00
2023-03-03T20:55:22.815Z,68.70
2023-03-03T20:57:55.800Z,62.30
2023-03-03T21:01:03.655Z,66.20
2023-03-03T21:03:37.708Z,61.50
2023-03-03T21:06:14.631Z,80.50
2023-03-03T21:08:54.419Z,69.60
2023-03-03T21:11:30.549Z,69.10
2023-03-03T21:13:59.463Z,69.30
2023-03-03T21:16:26.404Z,66.20
2023-03-03T21:19:10.166Z,70.40
2023-03-03T21:21:46.479Z,69.50
2023-03-03T21:24:18.957Z,72.70
2023-03-03T21:26:49.855Z,70.70
2023-03-03T21:29:27.613Z,70.50
2023-03-03T21:32:06.017Z,70.30
2023-03-03T21:34:33.371Z,77.20
2023-03-03T21:37:03.618Z,70.40
2023-03-03T21:39:32.122Z,84.00
2023-03-03T21:42:38.453Z,85.10
2023-03-03T21:47:36.525Z,82.70
2023-03-03T21:50:03.834Z,81.50
2023-03-03T21:52:32.265Z,75.40
2023-03-03T21:54:59.149Z,74.80
2023-03-03T21:57:26.287Z,74.30
2023-03-03T21:59:53.486Z,72.30
2023-03-03T22:02:20.465Z,76.00
2023-03-03T22:04:47.725Z,72.00
2023-03-03T22:07:14.787Z,73.20
2023-03-03T22:09:41.830Z,73.10
2023-03-03T22:12:08.967Z,90.00
2023-03-03T22:14:35.969Z,92.30
2023-03-03T22:17:02.981Z,77.00
2023-03-03T22:19:30.783Z,71.40
2023-03-03T22:21:57.855Z,71.50
2023-03-03T22:24:24.882Z,69.30
2023-03-03T22:26:51.828Z,66.10
2023-03-03T22:29:22.146Z,64.60
2023-03-03T22:31:50.347Z,67.00
2023-03-03T22:34:17.844Z,63.40
2023-03-03T22:36:44.852Z,66.10
2023-03-03T22:39:11.786Z,68.00
2023-03-03T22:41:38.756Z,68.90
2023-03-03T22:44:05.757Z,64.00
2023-03-03T22:46:32.708Z,69.10
2023-03-03T22:48:59.721Z,72.60
2023-03-03T22:51:26.820Z,65.80
2023-03-03T22:53:53.785Z,69.20
2023-03-03T22:56:20.741Z,68.90
2023-03-03T22:58:48.932Z,71.70
2023-03-03T23:01:15.921Z,72.00
2023-03-03T23:03:42.863Z,67.00
2023-03-03T23:06:09.809Z,67.60
2023-03-03T23:08:36.731Z,64.70
2023-03-03T23:11:03.903Z,67.70
2023-03-03T23:13:31.843Z,71.00
2023-03-03T23:15:59.591Z,73.70
2023-03-03T23:18:27.931Z,70.10
2023-03-03T23:20:55.773Z,74.10
2023-03-03T23:23:22.778Z,72.90
2023-03-03T23:25:49.841Z,71.80
2023-03-03T23:28:18.574Z,70.10
2023-03-03T23:30:45.571Z,69.10
2023-03-03T23:33:12.488Z,72.50
2023-03-03T23:35:39.757Z,74.80
2023-03-03T23:38:07.007Z,73.90
2023-03-03T23:40:34.288Z,72.20
2023-03-03T23:43:01.387Z,71.90
2023-03-03T23:45:28.436Z,75.90
2023-03-03T23:47:55.959Z,76.80
2023-03-03T23:50:23.124Z,78.60
2023-03-03T23:52:50.364Z,78.50
2023-03-03T23:55:17.471Z,76.90
2023-03-03T23:57:44.507Z,74.80
